Latest Weather Observations for Maria Island

IDT60801

Issued at 5:02 pm EST Tuesday 26 September 2017 (issued every 30 minutes, with the page automatically refreshed every 10 minutes)

About weather observations | Map of weather stations | Latest weather observations for TAS | Other Formats
Station Details ID: 092124 Name: MARIA ISLAND (POINT LESUEUR) Lat: -42.66 Lon: 148.02 Height: 28.0 m
Data from the previous 72 hours. | See also: Recent months at Maria Island
Date/Time
EST
Temp
°C
App
Temp
°C
Dew
Point
°C
Rel
Hum
%
Delta-T
°C
Wind Press
QNH
hPa
Press
MSL
hPa
Rain since
9am
mm
Dir  Spd
km/h
Gust
km/h
Spd
kts
Gust
kts
26/05:00pm 11.5 9.0 3.5 58 3.5 SSE 6 7 3 4 1012.8 1012.8 0.0
26/04:30pm 11.8 9.1 3.6 57 3.6 ESE 7 9 4 5 1012.6 1012.6 0.0
26/04:00pm 11.7 7.4 3.5 57 3.6 E 15 19 8 10 1012.4 1012.4 0.0
26/03:30pm 11.6 7.0 3.6 58 3.5 E 17 19 9 10 1012.2 1012.2 0.0
26/03:00pm 11.5 6.3 3.5 58 3.5 ESE 20 24 11 13 1012.0 1012.0 0.0
26/02:30pm 11.6 6.3 2.9 55 3.8 E 20 26 11 14 1012.1 1012.1 0.0
26/02:00pm 12.6 8.0 3.6 54 4.0 ESE 17 20 9 11 1012.2 1012.2 0.0
26/01:30pm 12.7 8.8 3.4 53 4.1 ESE 13 19 7 10 1012.3 1012.3 0.0
26/01:00pm 12.4 9.6 2.3 50 4.4 SSE 6 9 3 5 1012.5 1012.5 0.0
26/12:30pm 11.8 8.4 1.7 50 4.3 SSE 9 13 5 7 1012.7 1012.7 0.0
26/12:00pm 11.9 9.0 1.5 49 4.4 ESE 6 7 3 4 1012.9 1012.9 0.0
26/11:30am 11.6 8.7 1.5 50 4.3 SE 6 9 3 5 1013.0 1013.0 0.0
26/11:00am 11.1 8.0 1.6 52 4.0 SSE 7 9 4 5 1013.1 1013.1 0.0
26/10:30am 11.2 8.9 2.5 55 3.8 SSW 4 7 2 4 1013.2 1013.2 0.0
26/10:00am 10.6 7.8 2.2 56 3.6 S 6 9 3 5 1013.1 1013.1 0.0
26/09:30am 10.4 7.0 2.0 56 3.6 WNW 9 13 5 7 1013.2 1013.2 0.0
26/09:00am 9.3 5.5 1.7 59 3.2 WNW 11 15 6 8 1013.2 1013.2 0.0
26/08:30am 8.8 4.3 1.9 62 2.9 WNW 15 17 8 9 1013.1 1013.1 0.0
26/08:00am 8.2 2.3 2.0 65 2.6 WNW 22 26 12 14 1012.8 1012.8 0.0
26/07:30am 7.2 3.4 1.9 69 2.2 WNW 11 13 6 7 1012.6 1012.6 0.0
26/07:00am 6.7 2.1 1.8 71 2.0 WNW 15 19 8 10 1012.2 1012.2 0.0
26/06:30am 6.0 0.4 1.3 72 1.9 WNW 20 24 11 13 1011.9 1011.9 0.0
26/06:00am 5.9 0.5 1.1 71 1.9 WNW 19 22 10 12 1011.6 1011.6 0.0
26/05:30am 5.7 0.3 1.4 74 1.7 WNW 19 22 10 12 1011.1 1011.1 0.0
26/05:00am 5.8 0.4 1.5 74 1.7 WNW 19 20 10 11 1010.8 1010.8 0.0
26/04:30am 5.7 1.4 1.2 73 1.8 W 13 17 7 9 1010.8 1010.8 0.0
26/04:00am 5.8 1.1 1.2 72 1.8 W 15 17 8 9 1010.5 1010.5 0.0
26/03:30am 6.2 1.2 1.1 70 2.0 W 17 20 9 11 1010.2 1010.2 0.0
26/03:00am 6.2 0.8 1.5 72 1.9 W 19 26 10 14 1010.0 1010.0 0.0
26/02:30am 6.5 -0.6 1.2 69 2.1 W 28 33 15 18 1009.7 1009.7 0.0
26/02:00am 6.5 -0.2 1.4 70 2.0 W 26 30 14 16 1009.4 1009.4 0.0
26/01:30am 6.2 2.3 1.1 70 2.0 W 11 22 6 12 1009.6 1009.6 0.0
26/01:00am 6.3 2.7 0.4 66 2.3 WNW 9 15 5 8 1009.4 1009.4 0.0
26/12:30am 6.8 0.0 0.9 66 2.3 W 26 35 14 19 1009.0 1009.0 0.0
26/12:00am 6.6 1.2 1.1 68 2.2 W 19 22 10 12 1008.9 1008.9 0.0
 
Date/Time
EST
Temp
°C
App
Temp
°C
Dew
Point
°C
Rel
Hum
%
Delta-T
°C
Wind Press
QNH
hPa
Press
MSL
hPa
Rain since
9am
mm
Dir  Spd
km/h
Gust
km/h
Spd
kts
Gust
kts
25/11:30pm 7.0 1.1 1.5 68 2.2 W 22 26 12 14 1008.7 1008.7 0.0
25/11:00pm 7.3 2.3 1.2 65 2.5 WSW 17 26 9 14 1008.7 1008.7 0.0
25/10:30pm 7.4 2.3 1.0 64 2.6 WSW 17 24 9 13 1008.4 1008.4 0.0
25/10:00pm 7.7 2.3 1.5 65 2.5 WSW 19 28 10 15 1008.4 1008.4 0.0
25/09:30pm 7.7 2.7 1.3 64 2.6 WSW 17 24 9 13 1008.2 1008.2 0.0
25/09:00pm 7.8 2.5 3.1 72 2.0 WSW 20 28 11 15 1007.9 1007.9 0.0
25/08:30pm 7.8 2.2 3.7 75 1.8 SW 22 26 12 14 1007.2 1007.2 0.0
25/08:00pm 7.8 1.2 4.0 77 1.6 SSW 28 35 15 19 1006.8 1006.8 0.0
25/07:30pm 8.2 -0.8 4.8 79 1.5 SW 41 50 22 27 1005.8 1005.8 0.0
25/07:00pm 8.2 -1.1 5.1 81 1.4 SW 43 56 23 30 1005.2 1005.2 0.0
25/06:30pm 8.8 -0.8 3.4 69 2.3 SW 43 52 23 28 1004.7 1004.7 0.0
25/06:00pm 9.1 -0.1 3.3 67 2.5 SW 41 54 22 29 1004.4 1004.4 0.0
25/05:30pm 9.4 -1.8 3.8 68 2.4 SW 52 63 28 34 1003.4 1003.4 0.0
25/05:00pm 9.3 -0.8 3.9 69 2.4 SW 46 54 25 29 1003.1 1003.1 0.0
25/04:30pm 9.6 0.4 5.6 76 1.8 SSW 43 52 23 28 1003.0 1003.0 0.0
25/04:00pm 9.8 0.5 5.2 73 2.1 SSW 43 50 23 27 1002.5 1002.5 0.0
25/03:30pm 10.0 0.6 5.6 74 2.0 SSW 44 54 24 29 1002.0 1002.0 0.0
25/03:00pm 10.3 1.0 5.9 74 2.0 SSW 44 54 24 29 1001.3 1001.3 0.0
25/02:30pm 10.6 0.4 5.4 70 2.4 SSW 48 57 26 31 1000.7 1000.7 0.0
25/02:00pm 10.9 1.7 6.3 73 2.2 SSW 44 52 24 28 1000.1 1000.1 0.0
25/01:30pm 11.0 1.1 6.7 75 2.0 SSW 48 56 26 30 999.7 999.7 0.0
25/01:00pm 11.2 1.6 6.1 71 2.4 SSW 46 57 25 31 999.0 999.1 0.0
25/12:30pm 13.0 4.2 3.7 53 4.2 SW 39 50 21 27 998.6 998.7 0.0
25/12:00pm 13.2 3.7 3.8 53 4.3 WSW 43 56 23 30 998.1 998.2 0.0
25/11:30am 12.9 3.1 3.3 52 4.3 WSW 44 57 24 31 997.6 997.7 0.0
25/11:00am 12.5 3.6 3.2 53 4.2 WSW 39 59 21 32 997.4 997.5 0.0
25/10:50am 12.4 5.2 2.8 52 4.2 WSW 30 50 16 27 997.5 997.6 0.0
25/10:30am 12.0 3.8 2.5 52 4.1 WSW 35 50 19 27 997.4 997.5 0.0
25/10:05am 12.1 4.8 2.3 51 4.2 W 30 50 16 27 997.3 997.3 0.0
25/10:00am 11.7 3.9 1.6 50 4.3 WSW 32 44 17 24 997.6 997.7 0.0
25/09:32am 11.6 3.7 2.4 53 4.0 W 33 54 18 29 997.1 997.1 0.0
25/09:30am 11.4 3.1 1.9 52 4.0 W 35 54 19 29 997.0 997.0 0.0
25/09:00am 10.9 2.5 1.4 52 4.0 W 35 50 19 27 996.6 996.6 0.0
25/08:30am 10.4 2.5 1.0 52 3.9 W 32 44 17 24 996.4 996.4 0.0
25/08:00am 9.8 1.8 0.2 51 3.9 WNW 32 52 17 28 995.9 995.9 0.0
25/07:58am 9.8 1.8 0.7 53 3.7 WNW 32 52 17 28 995.8 995.8 0.0
25/07:30am 9.3 2.6 1.7 59 3.2 WNW 26 43 14 23 995.8 995.8 0.0
25/07:00am 8.8 2.4 0.8 57 3.3 WNW 24 32 13 17 995.3 995.3 0.0
25/06:30am 8.6 1.0 0.8 58 3.1 WNW 30 41 16 22 994.8 994.8 0.0
25/06:02am 8.8 1.5 -0.2 53 3.6 W 28 52 15 28 994.2 994.2 0.0
25/06:00am 8.5 2.0 0.5 57 3.2 W 24 43 13 23 994.4 994.4 0.0
25/05:46am 8.5 1.3 1.0 59 3.0 WSW 28 48 15 26 994.5 994.5 0.0
25/05:30am 8.7 0.5 0.2 55 3.4 W 33 48 18 26 994.1 994.1 0.0
25/05:15am 8.7 0.8 1.1 59 3.1 W 32 50 17 27 994.1 994.1 0.0
25/05:00am 8.8 1.3 1.0 58 3.2 W 30 41 16 22 993.7 993.7 0.0
25/04:30am 8.9 0.8 1.3 59 3.1 W 33 44 18 24 993.4 993.4 0.0
25/04:00am 9.1 0.2 1.0 57 3.3 W 37 50 20 27 992.9 992.9 0.0
25/03:30am 9.5 1.6 2.4 61 3.0 W 33 44 18 24 992.2 992.2 0.0
25/03:00am 9.8 3.4 3.3 64 2.8 W 26 37 14 20 992.1 992.1 0.0
25/02:30am 9.9 5.4 6.1 77 1.8 WSW 19 24 10 13 991.8 991.8 0.0
25/02:00am 9.8 4.6 7.4 85 1.2 SW 24 28 13 15 991.4 991.4 0.0
25/01:30am 10.0 5.4 8.3 89 0.8 SSW 22 28 12 15 990.9 990.9 0.0
25/01:00am 10.1 5.5 8.0 87 1.0 SSW 22 26 12 14 990.7 990.7 0.0
25/12:30am 10.6 5.8 8.7 88 0.9 SSW 24 32 13 17 990.5 990.5 0.0
25/12:00am 11.4 8.9 6.7 73 2.3 SW 9 19 5 10 990.2 990.2 0.0
 
Date/Time
EST
Temp
°C
App
Temp
°C
Dew
Point
°C
Rel
Hum
%
Delta-T
°C
Wind Press
QNH
hPa
Press
MSL
hPa
Rain since
9am
mm
Dir  Spd
km/h
Gust
km/h
Spd
kts
Gust
kts
24/11:30pm 10.8 7.7 7.1 78 1.8 NW 13 15 7 8 989.7 989.7 0.0
24/11:00pm 11.0 6.1 7.1 77 1.9 NNW 22 26 12 14 989.2 989.2 0.0
24/10:30pm 11.2 6.5 7.7 79 1.7 NNW 22 24 12 13 989.1 989.1 0.0
24/10:00pm 11.2 7.1 7.7 79 1.7 NNW 19 22 10 12 989.1 989.1 0.0
24/09:30pm 11.3 7.0 8.0 80 1.6 NNW 20 22 11 12 989.0 989.0 0.0
24/09:00pm 11.5 6.1 8.0 79 1.7 NNW 26 32 14 17 988.9 988.9 0.0
24/08:30pm 11.7 5.0 8.2 79 1.7 NNW 33 39 18 21 988.7 988.7 0.0
24/08:00pm 11.7 4.9 7.8 77 1.9 NNW 33 37 18 20 988.5 988.5 0.0
24/07:30pm 12.0 5.0 8.3 78 1.8 NNW 35 39 19 21 988.2 988.2 0.0
24/07:00pm 12.3 5.9 8.4 77 2.0 NNW 32 33 17 18 987.9 987.9 0.0
24/06:30pm 12.6 7.4 8.7 77 1.9 NNW 26 30 14 16 987.7 987.7 0.0
24/06:00pm 13.1 7.0 8.4 73 2.4 NNW 30 33 16 18 987.4 987.4 0.0
24/05:30pm 13.7 6.2 8.1 69 2.8 NNW 37 43 20 23 987.0 987.0 0.0
24/05:00pm 14.2 7.6 7.9 66 3.2 NNW 32 37 17 20 986.7 986.7 0.0
24/04:30pm 14.9 9.9 8.2 64 3.4 NNW 24 28 13 15 986.5 986.5 0.0
24/04:00pm 15.3 9.7 7.1 58 4.1 NNW 26 41 14 22 986.2 986.2 0.0
24/03:30pm 16.9 11.4 7.5 54 4.7 NW 26 35 14 19 986.0 986.0 0.0
24/03:20pm 16.4 10.3 6.5 52 4.9 NNW 28 48 15 26 985.9 985.9 0.0
24/03:00pm 15.8 10.9 6.8 55 4.5 WNW 22 37 12 20 985.9 985.9 0.0
24/02:30pm 16.4 9.7 5.4 48 5.3 W 30 35 16 19 985.9 985.9 0.0
24/02:01pm 17.9 10.9 6.1 46 5.8 WNW 32 50 17 27 985.9 985.9 0.0
24/02:00pm 18.1 10.9 5.7 44 6.1 WNW 33 50 18 27 985.9 985.9 0.0
24/01:30pm 16.6 9.8 5.3 47 5.4 W 30 41 16 22 985.8 985.8 0.0
24/01:00pm 17.4 9.2 4.7 43 6.1 WNW 37 48 20 26 985.7 985.7 0.0
24/12:30pm 16.5 10.2 5.5 48 5.3 WNW 28 41 15 22 986.2 986.2 0.0
24/12:00pm 15.6 7.1 5.2 50 5.0 W 39 48 21 26 986.1 986.1 0.0
24/11:30am 15.7 12.2 5.6 51 4.8 WNW 13 35 7 19 986.4 986.4 0.0
24/11:00am 16.1 11.7 8.8 62 3.8 NNW 22 30 12 16 986.5 986.5 0.0
24/10:30am 15.0 8.6 7.1 59 3.9 NW 30 39 16 21 986.7 986.7 0.0
24/10:00am 15.2 10.0 8.7 65 3.3 NNW 26 30 14 16 986.9 986.9 0.0
24/09:30am 13.9 10.0 8.7 71 2.6 NNW 19 28 10 15 987.1 987.1 0.0
24/09:00am 13.8 8.4 8.0 68 2.9 NNW 26 35 14 19 987.4 987.4 4.8
24/08:30am 12.8 8.4 7.5 70 2.6 NNW 20 30 11 16 987.6 987.6 4.8
24/08:00am 12.6 5.4 7.7 72 2.4 NW 35 44 19 24 987.4 987.4 4.8
24/07:55am 12.6 5.7 7.1 69 2.7 NW 33 44 18 24 987.2 987.2 4.8
24/07:30am 12.5 8.2 8.0 74 2.2 NNW 20 24 11 13 987.1 987.1 4.8
24/07:00am 12.4 7.7 7.9 74 2.2 NNW 22 26 12 14 987.0 987.0 4.8
24/06:30am 11.9 7.1 7.4 74 2.2 N 22 26 12 14 987.1 987.1 4.8
24/06:00am 11.9 7.8 7.8 76 2.0 NNW 19 22 10 12 986.8 986.8 4.8
24/05:30am 12.1 7.6 7.0 71 2.4 NW 20 28 11 15 986.6 986.6 4.8
24/05:00am 12.1 7.7 7.4 73 2.3 NNW 20 28 11 15 986.3 986.3 4.8
24/04:30am 12.4 8.5 7.1 70 2.6 NNW 17 26 9 14 986.2 986.2 4.8
24/04:00am 12.6 8.4 7.3 70 2.6 N 19 24 10 13 985.9 985.9 4.8
24/03:30am 12.4 8.2 7.5 72 2.4 N 19 26 10 14 985.4 985.4 4.8
24/03:00am 12.7 7.1 7.2 69 2.7 NNW 26 35 14 19 984.8 984.8 4.8
24/02:30am 12.6 6.3 7.3 70 2.6 NNW 30 39 16 21 984.3 984.3 4.8
24/02:00am 12.4 7.8 8.1 75 2.1 N 22 26 12 14 984.3 984.3 4.8
24/01:30am 12.1 6.4 8.4 78 1.8 N 28 33 15 18 984.6 984.6 4.8
24/01:00am 12.0 6.0 8.5 79 1.8 NNW 30 37 16 20 984.7 984.7 4.8
24/12:30am 12.1 5.5 8.4 78 1.8 NNW 33 43 18 23 984.8 984.8 4.8
24/12:00am 12.7 6.2 9.0 78 1.9 NNW 33 43 18 23 985.7 985.7 4.8
 
Date/Time
EST
Temp
°C
App
Temp
°C
Dew
Point
°C
Rel
Hum
%
Delta-T
°C
Wind Press
QNH
hPa
Press
MSL
hPa
Rain since
9am
mm
Dir  Spd
km/h
Gust
km/h
Spd
kts
Gust
kts
23/11:30pm 12.8 7.0 9.4 80 1.7 NW 30 37 16 20 985.4 985.4 4.8
23/11:00pm 13.2 7.4 9.6 79 1.9 NNW 30 35 16 19 985.7 985.7 4.8
23/10:55pm 13.3 8.3 9.7 79 1.8 NNW 26 35 14 19 985.7 985.7 4.8
23/10:30pm 13.9 12.3 10.1 78 2.0 NNW 9 13 5 7 985.7 985.7 4.8
23/10:00pm 13.0 11.2 10.9 87 1.1 NNE 11 15 6 8 986.2 986.2 4.8
23/09:30pm 13.1 11.3 11.0 87 1.1 WNW 11 15 6 8 987.6 987.6 4.8
23/09:00pm 13.2 10.4 11.3 88 1.0 W 17 30 9 16 987.7 987.7 4.8
23/08:30pm 12.9 8.3 11.1 89 0.9 NNW 26 32 14 17 988.3 988.3 2.8
23/08:00pm 12.9 9.1 11.0 88 1.0 N 22 24 12 13 987.0 987.0 2.8
23/07:30pm 12.8 9.6 11.4 91 0.7 N 19 22 10 12 987.2 987.2 2.8
23/07:00pm 12.4 9.5 11.1 92 0.7 NNW 17 19 9 10 987.7 987.7 2.8
23/06:30pm 12.9 9.5 11.1 89 0.9 NNW 20 24 11 13 987.5 987.5 2.8
23/06:00pm 12.8 7.9 11.2 90 0.9 N 28 33 15 18 987.5 987.5 2.8
23/05:30pm 13.3 9.1 11.2 87 1.1 N 24 28 13 15 988.5 988.5 2.8

Other Formats:

Comma delimited format used in spreadsheet applications
http://www.bom.gov.au/fwo/IDT60801/IDT60801.95988.axf

JavaScript Object Notation format (JSON) in row-major order
http://www.bom.gov.au/fwo/IDT60801/IDT60801.95988.json